Terminal Aerodrome Forecast
Issued by NWS

Home | Current Version | Previous Version | Text Only | Print | Product List | Glossary On
Versions: 1 2 3 4 5 6 7 8 9 10 11 12 13
000
FTPQ31 PGUM 281449 AAE
TAFGUM
TAF AMD

TAF AMD
PGSN 281449Z 2815/2912 06011KT P6SM VCSH FEW016 SCT040 BKN120
      TEMPO 2815/2819 09016KT 4SM SHRA SCT014 BKN025
     FM282200 08014KT P6SM VCSH SCT020 SCT050=

USA.gov is the U.S. government's official web portal to all federal, state and local government web resources and services.